sensor_id;sensor_type;location;lat;lon;timestamp;temperature;humidity
54260;DHT22;40172;53.022;7.012;2023-11-19T00:01:01;10.10;99.90
54260;DHT22;40172;53.022;7.012;2023-11-19T00:03:27;10.20;99.90
54260;DHT22;40172;53.022;7.012;2023-11-19T00:05:53;10.40;99.90
54260;DHT22;40172;53.022;7.012;2023-11-19T00:08:18;10.40;99.90
54260;DHT22;40172;53.022;7.012;2023-11-19T00:10:44;10.30;99.90
54260;DHT22;40172;53.022;7.012;2023-11-19T00:13:11;10.40;99.90
54260;DHT22;40172;53.022;7.012;2023-11-19T00:15:37;10.30;99.90
54260;DHT22;40172;53.022;7.012;2023-11-19T00:18:03;10.50;99.90
54260;DHT22;40172;53.022;7.012;2023-11-19T00:20:30;10.90;99.90
54260;DHT22;40172;53.022;7.012;2023-11-19T00:22:55;10.40;99.90
54260;DHT22;40172;53.022;7.012;2023-11-19T00:25:21;10.40;99.90
54260;DHT22;40172;53.022;7.012;2023-11-19T00:27:47;10.50;99.90
54260;DHT22;40172;53.022;7.012;2023-11-19T00:30:12;10.40;99.90
54260;DHT22;40172;53.022;7.012;2023-11-19T00:32:39;10.70;99.90
54260;DHT22;40172;53.022;7.012;2023-11-19T00:35:08;10.60;99.90
54260;DHT22;40172;53.022;7.012;2023-11-19T00:37:35;10.50;99.90
54260;DHT22;40172;53.022;7.012;2023-11-19T00:40:01;10.50;99.90
54260;DHT22;40172;53.022;7.012;2023-11-19T00:42:30;10.60;99.90
54260;DHT22;40172;53.022;7.012;2023-11-19T00:44:56;10.30;99.90
54260;DHT22;40172;53.022;7.012;2023-11-19T00:47:21;10.60;99.90
54260;DHT22;40172;53.022;7.012;2023-11-19T00:49:47;10.70;99.90
54260;DHT22;40172;53.022;7.012;2023-11-19T00:52:19;11.30;99.90
54260;DHT22;40172;53.022;7.012;2023-11-19T00:54:44;10.70;99.90
54260;DHT22;40172;53.022;7.012;2023-11-19T00:57:10;10.80;99.90
54260;DHT22;40172;53.022;7.012;2023-11-19T00:59:35;10.70;99.90
54260;DHT22;40172;53.022;7.012;2023-11-19T01:02:01;10.80;99.90
54260;DHT22;40172;53.022;7.012;2023-11-19T01:04:34;10.70;99.90
54260;DHT22;40172;53.022;7.012;2023-11-19T01:07:04;10.90;99.90
54260;DHT22;40172;53.022;7.012;2023-11-19T01:09:30;11.00;99.90
54260;DHT22;40172;53.022;7.012;2023-11-19T01:11:58;10.80;99.90
54260;DHT22;40172;53.022;7.012;2023-11-19T01:14:23;10.90;99.90
54260;DHT22;40172;53.022;7.012;2023-11-19T01:16:49;11.10;99.90
54260;DHT22;40172;53.022;7.012;2023-11-19T01:19:14;11.10;99.90
54260;DHT22;40172;53.022;7.012;2023-11-19T01:21:40;11.10;99.90
54260;DHT22;40172;53.022;7.012;2023-11-19T01:24:05;11.10;99.90
54260;DHT22;40172;53.022;7.012;2023-11-19T01:26:34;11.00;99.90
54260;DHT22;40172;53.022;7.012;2023-11-19T01:29:00;11.10;99.90
54260;DHT22;40172;53.022;7.012;2023-11-19T01:31:26;11.20;99.90
54260;DHT22;40172;53.022;7.012;2023-11-19T01:33:52;11.20;99.90
54260;DHT22;40172;53.022;7.012;2023-11-19T01:36:17;11.30;99.90
54260;DHT22;40172;53.022;7.012;2023-11-19T01:38:43;11.30;99.90
54260;DHT22;40172;53.022;7.012;2023-11-19T01:41:08;11.50;99.90
54260;DHT22;40172;53.022;7.012;2023-11-19T01:46:00;11.50;99.90
54260;DHT22;40172;53.022;7.012;2023-11-19T01:48:25;11.50;99.90
54260;DHT22;40172;53.022;7.012;2023-11-19T01:50:51;11.60;99.90
54260;DHT22;40172;53.022;7.012;2023-11-19T01:53:17;11.40;99.90
54260;DHT22;40172;53.022;7.012;2023-11-19T01:55:43;11.40;99.90
54260;DHT22;40172;53.022;7.012;2023-11-19T01:58:09;11.60;99.90
54260;DHT22;40172;53.022;7.012;2023-11-19T02:00:34;11.70;99.90
54260;DHT22;40172;53.022;7.012;2023-11-19T02:03:00;11.70;99.90
54260;DHT22;40172;53.022;7.012;2023-11-19T02:05:26;11.60;99.90
54260;DHT22;40172;53.022;7.012;2023-11-19T02:07:52;11.70;99.90
54260;DHT22;40172;53.022;7.012;2023-11-19T02:10:17;11.80;99.90
54260;DHT22;40172;53.022;7.012;2023-11-19T02:12:44;11.70;99.90
54260;DHT22;40172;53.022;7.012;2023-11-19T02:15:11;11.60;99.90
54260;DHT22;40172;53.022;7.012;2023-11-19T02:17:37;11.80;99.90
54260;DHT22;40172;53.022;7.012;2023-11-19T02:20:06;11.90;99.90
54260;DHT22;40172;53.022;7.012;2023-11-19T02:22:34;11.80;99.90
54260;DHT22;40172;53.022;7.012;2023-11-19T02:25:00;11.80;99.90
54260;DHT22;40172;53.022;7.012;2023-11-19T02:27:39;11.90;99.90
54260;DHT22;40172;53.022;7.012;2023-11-19T02:30:05;11.90;99.90
54260;DHT22;40172;53.022;7.012;2023-11-19T02:32:34;11.60;99.90
54260;DHT22;40172;53.022;7.012;2023-11-19T02:35:01;11.70;99.90
54260;DHT22;40172;53.022;7.012;2023-11-19T02:37:26;11.80;99.90
54260;DHT22;40172;53.022;7.012;2023-11-19T02:39:53;12.00;99.90
54260;DHT22;40172;53.022;7.012;2023-11-19T02:42:19;12.00;99.90
54260;DHT22;40172;53.022;7.012;2023-11-19T02:44:44;12.00;99.90
54260;DHT22;40172;53.022;7.012;2023-11-19T02:47:11;12.00;99.90
54260;DHT22;40172;53.022;7.012;2023-11-19T02:49:36;12.20;99.90
54260;DHT22;40172;53.022;7.012;2023-11-19T02:52:02;13.10;99.90
54260;DHT22;40172;53.022;7.012;2023-11-19T02:54:31;12.10;99.90
54260;DHT22;40172;53.022;7.012;2023-11-19T02:57:00;12.00;99.90
54260;DHT22;40172;53.022;7.012;2023-11-19T02:59:27;12.20;99.90
54260;DHT22;40172;53.022;7.012;2023-11-19T03:01:53;12.10;99.90
54260;DHT22;40172;53.022;7.012;2023-11-19T03:04:19;12.20;99.90
54260;DHT22;40172;53.022;7.012;2023-11-19T03:06:48;12.10;99.90
54260;DHT22;40172;53.022;7.012;2023-11-19T03:09:14;12.40;99.90
54260;DHT22;40172;53.022;7.012;2023-11-19T03:11:39;12.20;99.90
54260;DHT22;40172;53.022;7.012;2023-11-19T03:14:05;12.10;99.90
54260;DHT22;40172;53.022;7.012;2023-11-19T03:16:30;12.20;99.90
54260;DHT22;40172;53.022;7.012;2023-11-19T03:18:56;12.30;99.90
54260;DHT22;40172;53.022;7.012;2023-11-19T03:21:28;12.30;99.90
54260;DHT22;40172;53.022;7.012;2023-11-19T03:23:54;12.30;99.90
54260;DHT22;40172;53.022;7.012;2023-11-19T03:26:21;12.60;99.90
54260;DHT22;40172;53.022;7.012;2023-11-19T03:28:47;12.50;99.90
54260;DHT22;40172;53.022;7.012;2023-11-19T03:31:12;12.30;99.90
54260;DHT22;40172;53.022;7.012;2023-11-19T03:33:38;12.50;99.90
54260;DHT22;40172;53.022;7.012;2023-11-19T03:36:04;12.50;99.90
54260;DHT22;40172;53.022;7.012;2023-11-19T03:38:29;12.50;99.90
54260;DHT22;40172;53.022;7.012;2023-11-19T03:40:55;12.50;99.90
54260;DHT22;40172;53.022;7.012;2023-11-19T03:43:20;12.50;99.90
54260;DHT22;40172;53.022;7.012;2023-11-19T03:45:46;12.50;99.90
54260;DHT22;40172;53.022;7.012;2023-11-19T03:48:11;12.40;99.90
54260;DHT22;40172;53.022;7.012;2023-11-19T03:50:37;12.40;99.90
54260;DHT22;40172;53.022;7.012;2023-11-19T03:53:02;12.40;99.90
54260;DHT22;40172;53.022;7.012;2023-11-19T03:55:28;12.30;99.90
54260;DHT22;40172;53.022;7.012;2023-11-19T03:57:54;12.30;99.90
54260;DHT22;40172;53.022;7.012;2023-11-19T04:00:20;12.40;99.90
54260;DHT22;40172;53.022;7.012;2023-11-19T04:02:46;12.30;99.90
54260;DHT22;40172;53.022;7.012;2023-11-19T04:05:12;12.30;99.90
54260;DHT22;40172;53.022;7.012;2023-11-19T04:07:37;12.30;99.90
54260;DHT22;40172;53.022;7.012;2023-11-19T04:10:03;12.30;99.90
54260;DHT22;40172;53.022;7.012;2023-11-19T04:12:29;12.40;99.90
54260;DHT22;40172;53.022;7.012;2023-11-19T04:14:54;12.40;99.90
54260;DHT22;40172;53.022;7.012;2023-11-19T04:17:21;12.30;99.90
54260;DHT22;40172;53.022;7.012;2023-11-19T04:19:48;12.30;99.90
54260;DHT22;40172;53.022;7.012;2023-11-19T04:22:14;12.30;99.90
54260;DHT22;40172;53.022;7.012;2023-11-19T04:24:39;13.20;99.90
54260;DHT22;40172;53.022;7.012;2023-11-19T04:27:06;12.30;99.90
54260;DHT22;40172;53.022;7.012;2023-11-19T04:29:31;12.30;99.90
54260;DHT22;40172;53.022;7.012;2023-11-19T04:31:57;12.20;99.90
54260;DHT22;40172;53.022;7.012;2023-11-19T04:34:23;12.20;99.90
54260;DHT22;40172;53.022;7.012;2023-11-19T04:36:49;12.30;99.90
54260;DHT22;40172;53.022;7.012;2023-11-19T04:39:14;12.30;99.90
54260;DHT22;40172;53.022;7.012;2023-11-19T04:41:50;12.30;99.90
54260;DHT22;40172;53.022;7.012;2023-11-19T04:44:17;12.30;99.90
54260;DHT22;40172;53.022;7.012;2023-11-19T04:46:43;12.30;99.90
54260;DHT22;40172;53.022;7.012;2023-11-19T04:49:09;12.30;99.90
54260;DHT22;40172;53.022;7.012;2023-11-19T04:51:43;12.20;99.90
54260;DHT22;40172;53.022;7.012;2023-11-19T04:54:08;12.30;99.90
54260;DHT22;40172;53.022;7.012;2023-11-19T04:56:34;12.20;99.90
54260;DHT22;40172;53.022;7.012;2023-11-19T04:59:01;12.20;99.90
54260;DHT22;40172;53.022;7.012;2023-11-19T05:01:27;12.20;99.90
54260;DHT22;40172;53.022;7.012;2023-11-19T05:03:53;12.00;99.90
54260;DHT22;40172;53.022;7.012;2023-11-19T05:06:18;12.10;99.90
54260;DHT22;40172;53.022;7.012;2023-11-19T05:08:44;12.10;99.90
54260;DHT22;40172;53.022;7.012;2023-11-19T05:11:10;12.00;99.90
54260;DHT22;40172;53.022;7.012;2023-11-19T05:13:37;11.90;99.90
54260;DHT22;40172;53.022;7.012;2023-11-19T05:16:03;11.90;99.90
54260;DHT22;40172;53.022;7.012;2023-11-19T05:18:29;11.90;99.90
54260;DHT22;40172;53.022;7.012;2023-11-19T05:20:54;11.90;99.90
54260;DHT22;40172;53.022;7.012;2023-11-19T05:23:20;13.70;99.90
54260;DHT22;40172;53.022;7.012;2023-11-19T05:25:45;12.00;99.90
54260;DHT22;40172;53.022;7.012;2023-11-19T05:28:11;11.90;99.90
54260;DHT22;40172;53.022;7.012;2023-11-19T05:30:36;11.90;99.90
54260;DHT22;40172;53.022;7.012;2023-11-19T05:33:02;11.90;99.90
54260;DHT22;40172;53.022;7.012;2023-11-19T05:35:28;11.90;99.90
54260;DHT22;40172;53.022;7.012;2023-11-19T05:37:53;11.90;99.90
54260;DHT22;40172;53.022;7.012;2023-11-19T05:40:19;11.90;99.90
54260;DHT22;40172;53.022;7.012;2023-11-19T05:42:45;11.90;99.90
54260;DHT22;40172;53.022;7.012;2023-11-19T05:45:11;11.90;99.90
54260;DHT22;40172;53.022;7.012;2023-11-19T05:47:37;11.90;99.90
54260;DHT22;40172;53.022;7.012;2023-11-19T05:50:02;11.90;99.90
54260;DHT22;40172;53.022;7.012;2023-11-19T05:52:29;12.00;99.90
54260;DHT22;40172;53.022;7.012;2023-11-19T05:55:01;11.90;99.90
54260;DHT22;40172;53.022;7.012;2023-11-19T05:57:34;12.00;99.90
54260;DHT22;40172;53.022;7.012;2023-11-19T06:00:00;11.90;99.90
54260;DHT22;40172;53.022;7.012;2023-11-19T06:02:25;11.90;99.90
54260;DHT22;40172;53.022;7.012;2023-11-19T06:04:52;11.90;99.90
54260;DHT22;40172;53.022;7.012;2023-11-19T06:07:18;11.90;99.90
54260;DHT22;40172;53.022;7.012;2023-11-19T06:09:45;11.90;99.90
54260;DHT22;40172;53.022;7.012;2023-11-19T06:12:10;11.90;99.90
54260;DHT22;40172;53.022;7.012;2023-11-19T06:14:36;11.90;99.90
54260;DHT22;40172;53.022;7.012;2023-11-19T06:17:01;11.90;99.90
54260;DHT22;40172;53.022;7.012;2023-11-19T06:19:27;11.80;99.90
54260;DHT22;40172;53.022;7.012;2023-11-19T06:21:53;11.80;99.90
54260;DHT22;40172;53.022;7.012;2023-11-19T06:24:19;11.80;99.90
54260;DHT22;40172;53.022;7.012;2023-11-19T06:26:44;11.80;99.90
54260;DHT22;40172;53.022;7.012;2023-11-19T06:29:10;11.80;99.90
54260;DHT22;40172;53.022;7.012;2023-11-19T06:31:35;11.80;99.90
54260;DHT22;40172;53.022;7.012;2023-11-19T06:34:02;11.70;99.90
54260;DHT22;40172;53.022;7.012;2023-11-19T06:36:27;11.80;99.90
54260;DHT22;40172;53.022;7.012;2023-11-19T06:38:53;11.80;99.90
54260;DHT22;40172;53.022;7.012;2023-11-19T06:41:18;11.70;99.90
54260;DHT22;40172;53.022;7.012;2023-11-19T06:43:44;11.70;99.90
54260;DHT22;40172;53.022;7.012;2023-11-19T06:46:16;11.80;99.90
54260;DHT22;40172;53.022;7.012;2023-11-19T06:48:41;11.80;99.90
54260;DHT22;40172;53.022;7.012;2023-11-19T06:51:09;11.70;99.90
54260;DHT22;40172;53.022;7.012;2023-11-19T06:53:35;12.80;99.90
54260;DHT22;40172;53.022;7.012;2023-11-19T06:56:01;11.70;99.90
54260;DHT22;40172;53.022;7.012;2023-11-19T06:58:30;12.20;99.90
54260;DHT22;40172;53.022;7.012;2023-11-19T07:00:56;11.60;99.90
54260;DHT22;40172;53.022;7.012;2023-11-19T07:03:21;11.60;99.90
54260;DHT22;40172;53.022;7.012;2023-11-19T07:05:47;11.60;99.90
54260;DHT22;40172;53.022;7.012;2023-11-19T07:08:12;11.60;99.90
54260;DHT22;40172;53.022;7.012;2023-11-19T07:10:38;11.60;99.90
54260;DHT22;40172;53.022;7.012;2023-11-19T07:13:03;11.50;99.90
54260;DHT22;40172;53.022;7.012;2023-11-19T07:15:31;11.50;99.90
54260;DHT22;40172;53.022;7.012;2023-11-19T07:17:58;11.50;99.90
54260;DHT22;40172;53.022;7.012;2023-11-19T07:20:25;11.40;99.90
54260;DHT22;40172;53.022;7.012;2023-11-19T07:22:52;11.30;99.90
54260;DHT22;40172;53.022;7.012;2023-11-19T07:25:17;11.30;99.90
54260;DHT22;40172;53.022;7.012;2023-11-19T07:27:43;11.30;99.90
54260;DHT22;40172;53.022;7.012;2023-11-19T07:30:08;11.30;99.90
54260;DHT22;40172;53.022;7.012;2023-11-19T07:32:34;11.30;99.90
54260;DHT22;40172;53.022;7.012;2023-11-19T07:34:59;11.30;99.90
54260;DHT22;40172;53.022;7.012;2023-11-19T07:37:25;11.40;99.90
54260;DHT22;40172;53.022;7.012;2023-11-19T07:39:51;11.30;99.90
54260;DHT22;40172;53.022;7.012;2023-11-19T07:42:16;11.30;99.90
54260;DHT22;40172;53.022;7.012;2023-11-19T07:44:43;11.40;99.90
54260;DHT22;40172;53.022;7.012;2023-11-19T07:47:08;11.40;99.90
54260;DHT22;40172;53.022;7.012;2023-11-19T07:49:34;11.40;99.90
54260;DHT22;40172;53.022;7.012;2023-11-19T07:51:59;11.40;99.90
54260;DHT22;40172;53.022;7.012;2023-11-19T07:54:25;11.40;99.90
54260;DHT22;40172;53.022;7.012;2023-11-19T07:56:51;11.50;99.90
54260;DHT22;40172;53.022;7.012;2023-11-19T07:59:16;11.40;99.90
54260;DHT22;40172;53.022;7.012;2023-11-19T08:01:42;11.40;99.90
54260;DHT22;40172;53.022;7.012;2023-11-19T08:04:07;11.40;99.90
54260;DHT22;40172;53.022;7.012;2023-11-19T08:06:33;11.40;99.90
54260;DHT22;40172;53.022;7.012;2023-11-19T08:08:58;11.30;99.90
54260;DHT22;40172;53.022;7.012;2023-11-19T08:11:24;11.50;99.90
54260;DHT22;40172;53.022;7.012;2023-11-19T08:13:50;11.40;99.90
54260;DHT22;40172;53.022;7.012;2023-11-19T08:16:15;11.40;99.90
54260;DHT22;40172;53.022;7.012;2023-11-19T08:18:44;11.40;99.90
54260;DHT22;40172;53.022;7.012;2023-11-19T08:21:09;11.40;99.90
54260;DHT22;40172;53.022;7.012;2023-11-19T08:23:36;11.50;99.90
54260;DHT22;40172;53.022;7.012;2023-11-19T08:26:01;11.60;99.90
54260;DHT22;40172;53.022;7.012;2023-11-19T08:28:27;11.50;99.90
54260;DHT22;40172;53.022;7.012;2023-11-19T08:30:53;11.50;99.90
54260;DHT22;40172;53.022;7.012;2023-11-19T08:33:18;11.60;99.90
54260;DHT22;40172;53.022;7.012;2023-11-19T08:35:44;11.50;99.90
54260;DHT22;40172;53.022;7.012;2023-11-19T08:38:10;11.50;99.90
54260;DHT22;40172;53.022;7.012;2023-11-19T08:40:35;11.50;99.90
54260;DHT22;40172;53.022;7.012;2023-11-19T08:43:01;11.50;99.90
54260;DHT22;40172;53.022;7.012;2023-11-19T08:45:26;11.60;99.90
54260;DHT22;40172;53.022;7.012;2023-11-19T08:47:52;11.60;99.90
54260;DHT22;40172;53.022;7.012;2023-11-19T08:50:17;11.60;99.90
54260;DHT22;40172;53.022;7.012;2023-11-19T08:52:43;11.70;99.90
54260;DHT22;40172;53.022;7.012;2023-11-19T08:55:08;11.70;99.90
54260;DHT22;40172;53.022;7.012;2023-11-19T08:57:35;11.70;99.90
54260;DHT22;40172;53.022;7.012;2023-11-19T09:00:00;11.90;99.90
54260;DHT22;40172;53.022;7.012;2023-11-19T09:02:26;11.80;99.90
54260;DHT22;40172;53.022;7.012;2023-11-19T09:04:52;11.80;99.90
54260;DHT22;40172;53.022;7.012;2023-11-19T09:07:17;11.70;99.90
54260;DHT22;40172;53.022;7.012;2023-11-19T09:09:43;11.60;99.90
54260;DHT22;40172;53.022;7.012;2023-11-19T09:12:08;11.50;99.90
54260;DHT22;40172;53.022;7.012;2023-11-19T09:14:34;11.50;99.90
54260;DHT22;40172;53.022;7.012;2023-11-19T09:16:59;11.40;99.90
54260;DHT22;40172;53.022;7.012;2023-11-19T09:19:25;11.40;99.90
54260;DHT22;40172;53.022;7.012;2023-11-19T09:21:52;11.40;99.90
54260;DHT22;40172;53.022;7.012;2023-11-19T09:24:18;11.40;99.90
54260;DHT22;40172;53.022;7.012;2023-11-19T09:26:43;11.40;99.90
54260;DHT22;40172;53.022;7.012;2023-11-19T09:29:09;12.20;99.90
54260;DHT22;40172;53.022;7.012;2023-11-19T09:31:34;11.40;99.90
54260;DHT22;40172;53.022;7.012;2023-11-19T09:34:00;11.40;99.90
54260;DHT22;40172;53.022;7.012;2023-11-19T09:36:26;11.40;99.90
54260;DHT22;40172;53.022;7.012;2023-11-19T09:38:52;11.40;99.90
54260;DHT22;40172;53.022;7.012;2023-11-19T09:41:17;11.40;99.90
54260;DHT22;40172;53.022;7.012;2023-11-19T09:43:44;11.50;99.90
54260;DHT22;40172;53.022;7.012;2023-11-19T09:46:10;11.60;99.90
54260;DHT22;40172;53.022;7.012;2023-11-19T09:48:37;11.70;99.90
54260;DHT22;40172;53.022;7.012;2023-11-19T09:51:04;11.90;99.90
54260;DHT22;40172;53.022;7.012;2023-11-19T09:53:30;11.90;99.90
54260;DHT22;40172;53.022;7.012;2023-11-19T09:55:56;11.90;99.90
54260;DHT22;40172;53.022;7.012;2023-11-19T09:58:22;12.00;99.90
54260;DHT22;40172;53.022;7.012;2023-11-19T10:00:48;12.00;99.90
54260;DHT22;40172;53.022;7.012;2023-11-19T10:03:13;12.00;99.90
54260;DHT22;40172;53.022;7.012;2023-11-19T10:05:39;11.90;99.90
54260;DHT22;40172;53.022;7.012;2023-11-19T10:08:06;11.80;99.90
54260;DHT22;40172;53.022;7.012;2023-11-19T10:10:32;11.80;99.90
54260;DHT22;40172;53.022;7.012;2023-11-19T10:12:57;11.80;99.90
54260;DHT22;40172;53.022;7.012;2023-11-19T10:15:23;11.90;99.90
54260;DHT22;40172;53.022;7.012;2023-11-19T10:17:50;11.90;99.90
54260;DHT22;40172;53.022;7.012;2023-11-19T10:20:16;11.90;99.90
54260;DHT22;40172;53.022;7.012;2023-11-19T10:22:42;11.80;99.90
54260;DHT22;40172;53.022;7.012;2023-11-19T10:25:23;11.80;99.90
54260;DHT22;40172;53.022;7.012;2023-11-19T10:27:49;11.80;99.90
54260;DHT22;40172;53.022;7.012;2023-11-19T10:30:22;11.80;99.90
54260;DHT22;40172;53.022;7.012;2023-11-19T10:35:29;11.70;99.90
54260;DHT22;40172;53.022;7.012;2023-11-19T10:37:54;11.60;99.90
54260;DHT22;40172;53.022;7.012;2023-11-19T10:40:20;11.60;99.90
54260;DHT22;40172;53.022;7.012;2023-11-19T10:42:45;11.50;99.90
54260;DHT22;40172;53.022;7.012;2023-11-19T10:45:23;11.50;99.90
54260;DHT22;40172;53.022;7.012;2023-11-19T10:47:50;11.50;99.90
54260;DHT22;40172;53.022;7.012;2023-11-19T10:50:16;11.40;99.90
54260;DHT22;40172;53.022;7.012;2023-11-19T10:52:42;11.50;99.90
54260;DHT22;40172;53.022;7.012;2023-11-19T10:55:08;11.50;99.90
54260;DHT22;40172;53.022;7.012;2023-11-19T10:57:36;11.50;99.90
54260;DHT22;40172;53.022;7.012;2023-11-19T11:00:02;11.40;99.90
54260;DHT22;40172;53.022;7.012;2023-11-19T11:02:29;11.30;99.90
54260;DHT22;40172;53.022;7.012;2023-11-19T11:05:00;11.30;99.90
54260;DHT22;40172;53.022;7.012;2023-11-19T11:07:26;11.20;99.90
54260;DHT22;40172;53.022;7.012;2023-11-19T11:09:52;11.10;99.90
54260;DHT22;40172;53.022;7.012;2023-11-19T11:12:18;11.00;99.90
54260;DHT22;40172;53.022;7.012;2023-11-19T11:14:47;11.00;99.90
54260;DHT22;40172;53.022;7.012;2023-11-19T11:17:13;10.90;99.90
54260;DHT22;40172;53.022;7.012;2023-11-19T11:19:41;10.90;99.90
54260;DHT22;40172;53.022;7.012;2023-11-19T11:22:08;10.90;99.90
54260;DHT22;40172;53.022;7.012;2023-11-19T11:32:43;10.90;99.90
54260;DHT22;40172;53.022;7.012;2023-11-19T11:35:24;10.80;99.90
54260;DHT22;40172;53.022;7.012;2023-11-19T11:37:55;10.80;99.90
54260;DHT22;40172;53.022;7.012;2023-11-19T11:40:24;10.80;99.90
54260;DHT22;40172;53.022;7.012;2023-11-19T11:42:51;10.80;99.90
54260;DHT22;40172;53.022;7.012;2023-11-19T11:45:18;10.80;99.90
54260;DHT22;40172;53.022;7.012;2023-11-19T11:50:20;11.00;99.90
54260;DHT22;40172;53.022;7.012;2023-11-19T11:55:27;11.10;99.90
54260;DHT22;40172;53.022;7.012;2023-11-19T11:57:56;11.40;99.90
54260;DHT22;40172;53.022;7.012;2023-11-19T12:00:22;11.50;99.90
54260;DHT22;40172;53.022;7.012;2023-11-19T12:02:49;11.60;99.90
54260;DHT22;40172;53.022;7.012;2023-11-19T12:05:15;11.60;99.90
54260;DHT22;40172;53.022;7.012;2023-11-19T12:07:40;11.70;99.90
54260;DHT22;40172;53.022;7.012;2023-11-19T12:10:07;11.80;99.90
54260;DHT22;40172;53.022;7.012;2023-11-19T12:12:41;11.90;99.90
54260;DHT22;40172;53.022;7.012;2023-11-19T12:15:07;12.00;99.90
54260;DHT22;40172;53.022;7.012;2023-11-19T12:17:42;13.50;99.90
54260;DHT22;40172;53.022;7.012;2023-11-19T12:20:11;12.00;99.90
54260;DHT22;40172;53.022;7.012;2023-11-19T12:22:37;12.00;99.90
54260;DHT22;40172;53.022;7.012;2023-11-19T12:25:04;11.90;99.90
54260;DHT22;40172;53.022;7.012;2023-11-19T12:27:30;12.00;99.90
54260;DHT22;40172;53.022;7.012;2023-11-19T12:29:56;12.20;99.90
54260;DHT22;40172;53.022;7.012;2023-11-19T12:32:22;12.00;99.90
54260;DHT22;40172;53.022;7.012;2023-11-19T12:34:47;12.00;99.90
54260;DHT22;40172;53.022;7.012;2023-11-19T12:37:13;12.20;99.90
54260;DHT22;40172;53.022;7.012;2023-11-19T12:39:39;11.80;99.90
54260;DHT22;40172;53.022;7.012;2023-11-19T12:42:05;11.70;99.90
54260;DHT22;40172;53.022;7.012;2023-11-19T12:44:31;11.60;99.90
54260;DHT22;40172;53.022;7.012;2023-11-19T12:47:06;11.50;99.90
54260;DHT22;40172;53.022;7.012;2023-11-19T12:49:32;11.50;99.90
54260;DHT22;40172;53.022;7.012;2023-11-19T12:51:59;11.40;99.90
54260;DHT22;40172;53.022;7.012;2023-11-19T12:54:33;11.40;99.90
54260;DHT22;40172;53.022;7.012;2023-11-19T12:56:59;11.40;99.90
54260;DHT22;40172;53.022;7.012;2023-11-19T12:59:24;11.40;99.90
54260;DHT22;40172;53.022;7.012;2023-11-19T13:01:58;11.40;99.90
54260;DHT22;40172;53.022;7.012;2023-11-19T13:04:27;11.50;99.90
54260;DHT22;40172;53.022;7.012;2023-11-19T13:15:35;11.50;99.90
54260;DHT22;40172;53.022;7.012;2023-11-19T13:18:01;11.50;99.90
54260;DHT22;40172;53.022;7.012;2023-11-19T13:31:44;11.50;99.90
54260;DHT22;40172;53.022;7.012;2023-11-19T13:34:09;11.50;99.90
54260;DHT22;40172;53.022;7.012;2023-11-19T13:36:35;11.50;99.90
54260;DHT22;40172;53.022;7.012;2023-11-19T13:39:00;11.40;99.90
54260;DHT22;40172;53.022;7.012;2023-11-19T13:41:26;11.50;99.90
54260;DHT22;40172;53.022;7.012;2023-11-19T13:43:52;11.50;99.90
54260;DHT22;40172;53.022;7.012;2023-11-19T13:46:18;11.50;99.90
54260;DHT22;40172;53.022;7.012;2023-11-19T13:48:43;11.50;99.90
54260;DHT22;40172;53.022;7.012;2023-11-19T13:51:09;11.40;99.90
54260;DHT22;40172;53.022;7.012;2023-11-19T13:53:35;11.40;99.90
54260;DHT22;40172;53.022;7.012;2023-11-19T13:56:01;11.40;99.90
54260;DHT22;40172;53.022;7.012;2023-11-19T13:58:26;11.40;99.90
54260;DHT22;40172;53.022;7.012;2023-11-19T14:00:52;11.40;99.90
54260;DHT22;40172;53.022;7.012;2023-11-19T14:03:17;11.40;99.90
54260;DHT22;40172;53.022;7.012;2023-11-19T14:05:43;11.40;99.90
54260;DHT22;40172;53.022;7.012;2023-11-19T14:08:09;11.40;99.90
54260;DHT22;40172;53.022;7.012;2023-11-19T14:10:40;11.40;99.90
54260;DHT22;40172;53.022;7.012;2023-11-19T14:13:06;11.40;99.90
54260;DHT22;40172;53.022;7.012;2023-11-19T14:15:32;11.40;99.90
54260;DHT22;40172;53.022;7.012;2023-11-19T14:17:57;11.40;99.90
54260;DHT22;40172;53.022;7.012;2023-11-19T14:20:23;11.40;99.90
54260;DHT22;40172;53.022;7.012;2023-11-19T14:22:48;11.30;99.90
54260;DHT22;40172;53.022;7.012;2023-11-19T14:25:15;11.30;99.90
54260;DHT22;40172;53.022;7.012;2023-11-19T14:27:41;11.20;99.90
54260;DHT22;40172;53.022;7.012;2023-11-19T14:30:10;11.20;99.90
54260;DHT22;40172;53.022;7.012;2023-11-19T14:32:36;11.20;99.90
54260;DHT22;40172;53.022;7.012;2023-11-19T14:35:03;11.20;99.90
54260;DHT22;40172;53.022;7.012;2023-11-19T14:37:29;11.10;99.90
54260;DHT22;40172;53.022;7.012;2023-11-19T14:39:56;11.10;99.90
54260;DHT22;40172;53.022;7.012;2023-11-19T14:42:23;11.10;99.90
54260;DHT22;40172;53.022;7.012;2023-11-19T14:44:48;11.00;99.90
54260;DHT22;40172;53.022;7.012;2023-11-19T14:47:14;11.10;99.90
54260;DHT22;40172;53.022;7.012;2023-11-19T14:49:39;11.00;99.90
54260;DHT22;40172;53.022;7.012;2023-11-19T14:52:05;11.00;99.90
54260;DHT22;40172;53.022;7.012;2023-11-19T14:54:30;11.00;99.90
54260;DHT22;40172;53.022;7.012;2023-11-19T14:56:56;11.10;99.90
54260;DHT22;40172;53.022;7.012;2023-11-19T14:59:21;11.10;99.90
54260;DHT22;40172;53.022;7.012;2023-11-19T15:01:47;11.10;99.90
54260;DHT22;40172;53.022;7.012;2023-11-19T15:04:13;11.10;99.90
54260;DHT22;40172;53.022;7.012;2023-11-19T15:06:38;11.00;99.90
54260;DHT22;40172;53.022;7.012;2023-11-19T15:09:04;11.00;99.90
54260;DHT22;40172;53.022;7.012;2023-11-19T15:11:30;11.00;99.90
54260;DHT22;40172;53.022;7.012;2023-11-19T15:13:55;11.00;99.90
54260;DHT22;40172;53.022;7.012;2023-11-19T15:16:21;11.10;99.90
54260;DHT22;40172;53.022;7.012;2023-11-19T15:18:57;11.10;99.90
54260;DHT22;40172;53.022;7.012;2023-11-19T15:21:28;11.20;99.90
54260;DHT22;40172;53.022;7.012;2023-11-19T15:23:57;11.10;99.90
54260;DHT22;40172;53.022;7.012;2023-11-19T15:26:23;11.10;99.90
54260;DHT22;40172;53.022;7.012;2023-11-19T15:28:48;11.00;99.90
54260;DHT22;40172;53.022;7.012;2023-11-19T15:31:14;11.00;99.90
54260;DHT22;40172;53.022;7.012;2023-11-19T15:33:41;10.90;99.90
54260;DHT22;40172;53.022;7.012;2023-11-19T15:36:07;10.90;99.90
54260;DHT22;40172;53.022;7.012;2023-11-19T15:38:35;10.90;99.90
54260;DHT22;40172;53.022;7.012;2023-11-19T15:41:01;10.80;99.90
54260;DHT22;40172;53.022;7.012;2023-11-19T15:43:27;10.80;99.90
54260;DHT22;40172;53.022;7.012;2023-11-19T15:45:54;10.80;99.90
54260;DHT22;40172;53.022;7.012;2023-11-19T15:48:20;10.80;99.90
54260;DHT22;40172;53.022;7.012;2023-11-19T15:50:45;11.00;99.90
54260;DHT22;40172;53.022;7.012;2023-11-19T15:53:11;10.70;99.90
54260;DHT22;40172;53.022;7.012;2023-11-19T15:55:36;10.70;99.90
54260;DHT22;40172;53.022;7.012;2023-11-19T15:58:02;10.70;99.90
54260;DHT22;40172;53.022;7.012;2023-11-19T16:00:28;10.60;99.90
54260;DHT22;40172;53.022;7.012;2023-11-19T16:02:54;10.60;99.90